sensor_id;sensor_type;location;lat;lon;timestamp;pressure;altitude;pressure_sealevel;temperature;humidity
60240;BME280;46102;39.012;-7.064;2023-10-13T00:01:45;98637.13;;;22.11;44.64
60240;BME280;46102;39.012;-7.064;2023-10-13T00:03:47;98639.06;;;21.96;45.22
60240;BME280;46102;39.012;-7.064;2023-10-13T00:05:48;98641.06;;;21.95;45.06
60240;BME280;46102;39.012;-7.064;2023-10-13T00:07:53;98637.84;;;21.97;44.97
60240;BME280;46102;39.012;-7.064;2023-10-13T00:09:54;98641.44;;;21.97;45.16
60240;BME280;46102;39.012;-7.064;2023-10-13T00:11:57;98634.69;;;22.02;44.87
60240;BME280;46102;39.012;-7.064;2023-10-13T00:13:57;98635.47;;;21.95;45.06
60240;BME280;46102;39.012;-7.064;2023-10-13T00:15:58;98629.50;;;22.00;44.87
60240;BME280;46102;39.012;-7.064;2023-10-13T00:17:59;98635.09;;;22.04;44.32
60240;BME280;46102;39.012;-7.064;2023-10-13T00:20:00;98633.13;;;22.08;44.36
60240;BME280;46102;39.012;-7.064;2023-10-13T00:22:01;98639.53;;;22.12;44.09
60240;BME280;46102;39.012;-7.064;2023-10-13T00:24:09;98631.94;;;22.09;44.27
60240;BME280;46102;39.012;-7.064;2023-10-13T00:26:14;98632.31;;;22.08;44.57
60240;BME280;46102;39.012;-7.064;2023-10-13T00:28:22;98632.72;;;22.10;44.47
60240;BME280;46102;39.012;-7.064;2023-10-13T00:30:25;98641.13;;;22.10;44.63
60240;BME280;46102;39.012;-7.064;2023-10-13T00:32:35;98638.72;;;22.08;44.30
60240;BME280;46102;39.012;-7.064;2023-10-13T00:34:40;98641.91;;;22.07;44.46
60240;BME280;46102;39.012;-7.064;2023-10-13T00:36:41;98648.28;;;22.07;44.92
60240;BME280;46102;39.012;-7.064;2023-10-13T00:39:00;98646.25;;;22.00;45.08
60240;BME280;46102;39.012;-7.064;2023-10-13T00:41:01;98641.84;;;21.99;45.22
60240;BME280;46102;39.012;-7.064;2023-10-13T00:43:19;98650.22;;;21.99;44.96
60240;BME280;46102;39.012;-7.064;2023-10-13T00:45:22;98653.38;;;21.91;45.09
60240;BME280;46102;39.012;-7.064;2023-10-13T00:47:23;98648.16;;;21.82;45.77
60240;BME280;46102;39.012;-7.064;2023-10-13T00:49:36;98653.34;;;21.80;45.71
60240;BME280;46102;39.012;-7.064;2023-10-13T00:51:40;98647.69;;;21.73;45.78
60240;BME280;46102;39.012;-7.064;2023-10-13T00:53:47;98653.25;;;21.69;45.98
60240;BME280;46102;39.012;-7.064;2023-10-13T00:55:49;98656.78;;;21.59;46.78
60240;BME280;46102;39.012;-7.064;2023-10-13T00:57:54;98647.97;;;21.53;46.56
60240;BME280;46102;39.012;-7.064;2023-10-13T00:59:58;98655.91;;;21.48;47.20
60240;BME280;46102;39.012;-7.064;2023-10-13T01:02:00;98661.88;;;21.46;47.42
60240;BME280;46102;39.012;-7.064;2023-10-13T01:04:22;98654.22;;;21.39;47.53
60240;BME280;46102;39.012;-7.064;2023-10-13T01:06:29;98658.63;;;21.40;47.17
60240;BME280;46102;39.012;-7.064;2023-10-13T01:08:33;98656.59;;;21.37;47.34
60240;BME280;46102;39.012;-7.064;2023-10-13T01:10:38;98657.41;;;21.38;47.35
60240;BME280;46102;39.012;-7.064;2023-10-13T01:12:42;98654.19;;;21.32;47.84
60240;BME280;46102;39.012;-7.064;2023-10-13T01:14:44;98662.47;;;21.25;48.09
60240;BME280;46102;39.012;-7.064;2023-10-13T01:16:48;98653.34;;;21.28;47.73
60240;BME280;46102;39.012;-7.064;2023-10-13T01:18:53;98651.72;;;21.27;47.90
60240;BME280;46102;39.012;-7.064;2023-10-13T01:20:54;98653.72;;;21.27;48.02
60240;BME280;46102;39.012;-7.064;2023-10-13T01:22:59;98649.34;;;21.29;48.00
60240;BME280;46102;39.012;-7.064;2023-10-13T01:25:02;98639.34;;;21.21;48.88
60240;BME280;46102;39.012;-7.064;2023-10-13T01:27:10;98639.75;;;21.23;49.22
60240;BME280;46102;39.012;-7.064;2023-10-13T01:29:20;98627.78;;;21.23;48.80
60240;BME280;46102;39.012;-7.064;2023-10-13T01:31:26;98632.56;;;21.22;49.16
60240;BME280;46102;39.012;-7.064;2023-10-13T01:33:30;98634.56;;;21.21;49.39
60240;BME280;46102;39.012;-7.064;2023-10-13T01:35:33;98626.22;;;21.25;48.94
60240;BME280;46102;39.012;-7.064;2023-10-13T01:37:42;98629.00;;;21.25;49.58
60240;BME280;46102;39.012;-7.064;2023-10-13T01:39:43;98613.09;;;21.26;49.41
60240;BME280;46102;39.012;-7.064;2023-10-13T01:41:47;98628.19;;;21.25;49.78
60240;BME280;46102;39.012;-7.064;2023-10-13T01:43:55;98617.03;;;21.21;50.05
60240;BME280;46102;39.012;-7.064;2023-10-13T01:45:57;98615.00;;;21.18;50.57
60240;BME280;46102;39.012;-7.064;2023-10-13T01:47:58;98610.97;;;21.12;50.90
60240;BME280;46102;39.012;-7.064;2023-10-13T01:49:59;98605.00;;;21.10;50.80
60240;BME280;46102;39.012;-7.064;2023-10-13T01:52:15;98607.66;;;20.95;50.62
60240;BME280;46102;39.012;-7.064;2023-10-13T01:54:16;98601.25;;;20.91;50.56
60240;BME280;46102;39.012;-7.064;2023-10-13T01:56:19;98600.38;;;20.84;50.82
60240;BME280;46102;39.012;-7.064;2023-10-13T01:58:24;98596.81;;;20.83;51.02
60240;BME280;46102;39.012;-7.064;2023-10-13T02:00:26;98589.19;;;20.76;51.75
60240;BME280;46102;39.012;-7.064;2023-10-13T02:02:31;98592.38;;;20.78;51.67
60240;BME280;46102;39.012;-7.064;2023-10-13T02:04:32;98582.41;;;20.77;51.88
60240;BME280;46102;39.012;-7.064;2023-10-13T02:06:34;98592.28;;;20.68;52.46
60240;BME280;46102;39.012;-7.064;2023-10-13T02:08:36;98584.72;;;20.68;52.43
60240;BME280;46102;39.012;-7.064;2023-10-13T02:10:41;98593.00;;;20.61;52.66
60240;BME280;46102;39.012;-7.064;2023-10-13T02:12:43;98600.53;;;20.57;52.78
60240;BME280;46102;39.012;-7.064;2023-10-13T02:14:45;98592.88;;;20.50;53.56
60240;BME280;46102;39.012;-7.064;2023-10-13T02:16:46;98591.22;;;20.46;53.52
60240;BME280;46102;39.012;-7.064;2023-10-13T02:18:47;98595.22;;;20.45;52.99
60240;BME280;46102;39.012;-7.064;2023-10-13T02:20:53;98593.16;;;20.38;53.35
60240;BME280;46102;39.012;-7.064;2023-10-13T02:23:04;98596.69;;;20.35;53.52
60240;BME280;46102;39.012;-7.064;2023-10-13T02:25:10;98587.47;;;20.31;53.99
60240;BME280;46102;39.012;-7.064;2023-10-13T02:27:20;98596.97;;;20.23;54.64
60240;BME280;46102;39.012;-7.064;2023-10-13T02:29:23;98596.53;;;20.21;54.87
60240;BME280;46102;39.012;-7.064;2023-10-13T02:31:28;98585.75;;;20.15;55.18
60240;BME280;46102;39.012;-7.064;2023-10-13T02:33:30;98587.69;;;20.11;55.29
60240;BME280;46102;39.012;-7.064;2023-10-13T02:35:31;98594.00;;;20.08;55.83
60240;BME280;46102;39.012;-7.064;2023-10-13T02:37:42;98594.00;;;20.08;56.21
60240;BME280;46102;39.012;-7.064;2023-10-13T02:39:54;98585.25;;;20.06;56.52
60240;BME280;46102;39.012;-7.064;2023-10-13T02:41:58;98585.97;;;20.03;57.10
60240;BME280;46102;39.012;-7.064;2023-10-13T02:43:59;98591.53;;;20.03;57.32
60240;BME280;46102;39.012;-7.064;2023-10-13T02:45:59;98586.34;;;20.02;57.53
60240;BME280;46102;39.012;-7.064;2023-10-13T02:48:01;98582.78;;;20.01;57.72
60240;BME280;46102;39.012;-7.064;2023-10-13T02:50:13;98593.53;;;20.03;57.91
60240;BME280;46102;39.012;-7.064;2023-10-13T02:52:18;98589.97;;;20.02;58.10
60240;BME280;46102;39.012;-7.064;2023-10-13T02:54:20;98596.25;;;19.99;58.43
60240;BME280;46102;39.012;-7.064;2023-10-13T02:56:21;98599.47;;;20.01;58.46
60240;BME280;46102;39.012;-7.064;2023-10-13T02:58:22;98595.09;;;20.00;58.23
60240;BME280;46102;39.012;-7.064;2023-10-13T03:00:23;98589.09;;;19.98;58.21
60240;BME280;46102;39.012;-7.064;2023-10-13T03:02:24;98584.31;;;19.95;58.13
60240;BME280;46102;39.012;-7.064;2023-10-13T03:04:30;98580.69;;;19.91;58.16
60240;BME280;46102;39.012;-7.064;2023-10-13T03:06:42;98566.69;;;19.87;58.20
60240;BME280;46102;39.012;-7.064;2023-10-13T03:08:43;98571.81;;;19.82;58.56
60240;BME280;46102;39.012;-7.064;2023-10-13T03:10:44;98578.13;;;19.79;59.05
60240;BME280;46102;39.012;-7.064;2023-10-13T03:12:50;98570.97;;;19.78;58.66
60240;BME280;46102;39.012;-7.064;2023-10-13T03:14:53;98570.56;;;19.79;58.78
60240;BME280;46102;39.012;-7.064;2023-10-13T03:17:14;98569.34;;;19.76;58.52
60240;BME280;46102;39.012;-7.064;2023-10-13T03:19:17;98567.34;;;19.73;59.00
60240;BME280;46102;39.012;-7.064;2023-10-13T03:21:23;98562.56;;;19.74;59.01
60240;BME280;46102;39.012;-7.064;2023-10-13T03:23:30;98561.41;;;19.75;58.86
60240;BME280;46102;39.012;-7.064;2023-10-13T03:25:46;98564.22;;;19.79;58.57
60240;BME280;46102;39.012;-7.064;2023-10-13T03:27:52;98556.66;;;19.79;58.54
60240;BME280;46102;39.012;-7.064;2023-10-13T03:29:52;98546.34;;;19.80;58.28
60240;BME280;46102;39.012;-7.064;2023-10-13T03:31:56;98557.47;;;19.80;58.23
60240;BME280;46102;39.012;-7.064;2023-10-13T03:34:07;98555.84;;;19.79;58.39
60240;BME280;46102;39.012;-7.064;2023-10-13T03:36:13;98561.41;;;19.79;58.21
60240;BME280;46102;39.012;-7.064;2023-10-13T03:38:34;98561.84;;;19.81;57.90
60240;BME280;46102;39.012;-7.064;2023-10-13T03:40:37;98551.50;;;19.81;57.96
60240;BME280;46102;39.012;-7.064;2023-10-13T03:42:38;98554.28;;;19.81;58.05
60240;BME280;46102;39.012;-7.064;2023-10-13T03:44:40;98557.91;;;19.82;58.22
60240;BME280;46102;39.012;-7.064;2023-10-13T03:46:46;98556.72;;;19.83;58.05
60240;BME280;46102;39.012;-7.064;2023-10-13T03:48:48;98545.56;;;19.83;58.38
60240;BME280;46102;39.012;-7.064;2023-10-13T03:50:54;98544.72;;;19.79;58.59
60240;BME280;46102;39.012;-7.064;2023-10-13T03:53:03;98541.50;;;19.76;58.67
60240;BME280;46102;39.012;-7.064;2023-10-13T03:55:07;98537.13;;;19.75;58.71
60240;BME280;46102;39.012;-7.064;2023-10-13T03:57:07;98534.69;;;19.70;58.77
60240;BME280;46102;39.012;-7.064;2023-10-13T03:59:12;98539.44;;;19.70;59.08
60240;BME280;46102;39.012;-7.064;2023-10-13T04:01:15;98538.28;;;19.71;59.01
60240;BME280;46102;39.012;-7.064;2023-10-13T04:03:17;98541.78;;;19.68;58.97
60240;BME280;46102;39.012;-7.064;2023-10-13T04:05:18;98537.84;;;19.69;58.81
60240;BME280;46102;39.012;-7.064;2023-10-13T04:07:36;98537.75;;;19.62;59.19
60240;BME280;46102;39.012;-7.064;2023-10-13T04:09:40;98544.91;;;19.63;59.11
60240;BME280;46102;39.012;-7.064;2023-10-13T04:11:40;98540.88;;;19.60;59.22
60240;BME280;46102;39.012;-7.064;2023-10-13T04:14:01;98536.13;;;19.61;59.20
60240;BME280;46102;39.012;-7.064;2023-10-13T04:16:40;98536.13;;;19.61;58.95
60240;BME280;46102;39.012;-7.064;2023-10-13T04:18:52;98538.88;;;19.57;59.19
60240;BME280;46102;39.012;-7.064;2023-10-13T04:20:53;98540.03;;;19.56;59.44
60240;BME280;46102;39.012;-7.064;2023-10-13T04:23:04;98542.03;;;19.55;59.77
60240;BME280;46102;39.012;-7.064;2023-10-13T04:25:20;98543.59;;;19.53;60.17
60240;BME280;46102;39.012;-7.064;2023-10-13T04:27:52;98545.56;;;19.52;60.57
60240;BME280;46102;39.012;-7.064;2023-10-13T04:30:13;98546.63;;;19.44;61.26
60240;BME280;46102;39.012;-7.064;2023-10-13T04:32:25;98554.19;;;19.44;61.42
60240;BME280;46102;39.012;-7.064;2023-10-13T04:34:39;98551.41;;;19.44;61.56
60240;BME280;46102;39.012;-7.064;2023-10-13T04:36:40;98547.00;;;19.43;61.65
60240;BME280;46102;39.012;-7.064;2023-10-13T04:38:46;98551.78;;;19.42;61.91
60240;BME280;46102;39.012;-7.064;2023-10-13T04:40:57;98563.75;;;19.46;61.60
60240;BME280;46102;39.012;-7.064;2023-10-13T04:43:02;98563.44;;;19.51;61.52
60240;BME280;46102;39.012;-7.064;2023-10-13T04:45:26;98567.16;;;19.63;61.09
60240;BME280;46102;39.012;-7.064;2023-10-13T04:47:32;98568.47;;;19.69;60.77
60240;BME280;46102;39.012;-7.064;2023-10-13T04:49:42;98580.69;;;19.64;61.24
60240;BME280;46102;39.012;-7.064;2023-10-13T04:51:42;98583.75;;;19.55;61.32
60240;BME280;46102;39.012;-7.064;2023-10-13T04:54:13;98588.69;;;19.39;61.73
60240;BME280;46102;39.012;-7.064;2023-10-13T04:56:26;98587.84;;;19.35;61.63
60240;BME280;46102;39.012;-7.064;2023-10-13T04:58:41;98593.50;;;19.16;62.79
60240;BME280;46102;39.012;-7.064;2023-10-13T05:01:03;98601.41;;;19.13;63.18
60240;BME280;46102;39.012;-7.064;2023-10-13T05:03:22;98597.66;;;19.29;62.39
60240;BME280;46102;39.012;-7.064;2023-10-13T05:05:53;98600.25;;;19.41;61.85
60240;BME280;46102;39.012;-7.064;2023-10-13T05:07:54;98611.78;;;19.17;63.01
60240;BME280;46102;39.012;-7.064;2023-10-13T05:10:13;98613.72;;;19.12;62.89
60240;BME280;46102;39.012;-7.064;2023-10-13T05:12:33;98610.53;;;18.87;64.35
60240;BME280;46102;39.012;-7.064;2023-10-13T05:14:52;98601.69;;;18.82;64.49
60240;BME280;46102;39.012;-7.064;2023-10-13T05:17:12;98609.44;;;18.72;64.80
60240;BME280;46102;39.012;-7.064;2023-10-13T05:19:31;98601.06;;;18.69;64.89
60240;BME280;46102;39.012;-7.064;2023-10-13T05:21:50;98603.31;;;18.63;64.96
60240;BME280;46102;39.012;-7.064;2023-10-13T05:24:10;98618.75;;;18.61;65.01
60240;BME280;46102;39.012;-7.064;2023-10-13T05:26:29;98617.97;;;18.60;64.72
60240;BME280;46102;39.012;-7.064;2023-10-13T05:28:48;98621.63;;;18.64;64.44
60240;BME280;46102;39.012;-7.064;2023-10-13T05:31:08;98616.53;;;18.70;63.98
60240;BME280;46102;39.012;-7.064;2023-10-13T05:33:27;98607.75;;;18.68;63.67
60240;BME280;46102;39.012;-7.064;2023-10-13T05:35:46;98599.75;;;18.63;63.53
60240;BME280;46102;39.012;-7.064;2023-10-13T05:38:06;98606.91;;;18.64;63.09
60240;BME280;46102;39.012;-7.064;2023-10-13T05:40:25;98612.44;;;18.64;62.88
60240;BME280;46102;39.012;-7.064;2023-10-13T05:42:45;98610.06;;;18.62;62.94
60240;BME280;46102;39.012;-7.064;2023-10-13T05:45:04;98608.94;;;18.67;62.45
60240;BME280;46102;39.012;-7.064;2023-10-13T05:47:23;98618.88;;;18.68;62.39
60240;BME280;46102;39.012;-7.064;2023-10-13T05:49:42;98624.06;;;18.69;62.10
60240;BME280;46102;39.012;-7.064;2023-10-13T05:52:05;98616.19;;;18.71;61.89
60240;BME280;46102;39.012;-7.064;2023-10-13T05:54:19;98621.41;;;18.77;61.69
60240;BME280;46102;39.012;-7.064;2023-10-13T05:56:23;98623.47;;;18.80;61.39
60240;BME280;46102;39.012;-7.064;2023-10-13T05:58:42;98617.13;;;18.79;61.35
60240;BME280;46102;39.012;-7.064;2023-10-13T06:01:01;98619.16;;;18.82;61.27
60240;BME280;46102;39.012;-7.064;2023-10-13T06:03:20;98622.75;;;18.83;61.22
60240;BME280;46102;39.012;-7.064;2023-10-13T06:05:40;98619.59;;;18.84;60.87
60240;BME280;46102;39.012;-7.064;2023-10-13T06:07:59;98619.59;;;18.84;60.87
60240;BME280;46102;39.012;-7.064;2023-10-13T06:10:18;98621.63;;;18.87;60.61
60240;BME280;46102;39.012;-7.064;2023-10-13T06:12:38;98614.91;;;18.88;60.26
60240;BME280;46102;39.012;-7.064;2023-10-13T06:14:57;98609.78;;;18.90;59.93
60240;BME280;46102;39.012;-7.064;2023-10-13T06:17:16;98613.75;;;18.89;59.80
60240;BME280;46102;39.012;-7.064;2023-10-13T06:19:35;98611.41;;;18.91;59.42
60240;BME280;46102;39.012;-7.064;2023-10-13T06:21:55;98615.00;;;18.96;58.66
60240;BME280;46102;39.012;-7.064;2023-10-13T06:24:14;98613.09;;;19.00;57.94
60240;BME280;46102;39.012;-7.064;2023-10-13T06:26:33;98617.53;;;19.04;57.13
60240;BME280;46102;39.012;-7.064;2023-10-13T06:28:53;98619.59;;;19.07;56.44
60240;BME280;46102;39.012;-7.064;2023-10-13T06:30:56;98628.28;;;19.06;56.28
60240;BME280;46102;39.012;-7.064;2023-10-13T06:32:57;98638.66;;;19.09;56.22
60240;BME280;46102;39.012;-7.064;2023-10-13T06:34:58;98647.44;;;19.11;55.92
60240;BME280;46102;39.012;-7.064;2023-10-13T06:36:59;98649.06;;;19.12;55.72
60240;BME280;46102;39.012;-7.064;2023-10-13T06:38:59;98650.59;;;19.09;56.27
60240;BME280;46102;39.012;-7.064;2023-10-13T06:41:19;98650.66;;;19.13;56.91
60240;BME280;46102;39.012;-7.064;2023-10-13T06:43:32;98649.59;;;19.21;56.90
60240;BME280;46102;39.012;-7.064;2023-10-13T06:45:36;98656.88;;;19.29;56.70
60240;BME280;46102;39.012;-7.064;2023-10-13T06:47:37;98651.88;;;19.39;56.41
60240;BME280;46102;39.012;-7.064;2023-10-13T06:49:43;98654.44;;;19.51;55.92
60240;BME280;46102;39.012;-7.064;2023-10-13T06:51:44;98666.47;;;19.59;55.57
60240;BME280;46102;39.012;-7.064;2023-10-13T06:53:47;98659.09;;;19.70;55.06
60240;BME280;46102;39.012;-7.064;2023-10-13T06:55:48;98664.81;;;19.81;54.75
60240;BME280;46102;39.012;-7.064;2023-10-13T06:57:55;98669.00;;;19.94;54.18
60240;BME280;46102;39.012;-7.064;2023-10-13T07:00:00;98676.06;;;20.18;53.77
60240;BME280;46102;39.012;-7.064;2023-10-13T07:02:08;98679.78;;;20.59;52.93
60240;BME280;46102;39.012;-7.064;2023-10-13T07:04:20;98683.16;;;21.20;51.25
60240;BME280;46102;39.012;-7.064;2023-10-13T07:06:22;98677.84;;;21.49;50.53
60240;BME280;46102;39.012;-7.064;2023-10-13T07:08:23;98677.53;;;21.61;50.16
60240;BME280;46102;39.012;-7.064;2023-10-13T07:10:24;98683.34;;;21.97;48.96
60240;BME280;46102;39.012;-7.064;2023-10-13T07:12:31;98681.28;;;22.68;47.53
60240;BME280;46102;39.012;-7.064;2023-10-13T07:14:33;98675.78;;;23.50;45.61
60240;BME280;46102;39.012;-7.064;2023-10-13T07:16:34;98671.41;;;24.77;42.65
60240;BME280;46102;39.012;-7.064;2023-10-13T07:18:36;98665.16;;;26.04;39.91
60240;BME280;46102;39.012;-7.064;2023-10-13T07:20:41;98665.63;;;27.22;36.87
60240;BME280;46102;39.012;-7.064;2023-10-13T07:22:45;98671.00;;;27.83;35.39
60240;BME280;46102;39.012;-7.064;2023-10-13T07:25:03;98681.06;;;27.61;35.47
60240;BME280;46102;39.012;-7.064;2023-10-13T07:27:06;98687.22;;;27.76;34.94
60240;BME280;46102;39.012;-7.064;2023-10-13T07:29:09;98679.09;;;27.81;34.73
60240;BME280;46102;39.012;-7.064;2023-10-13T07:31:13;98684.78;;;27.31;35.85
60240;BME280;46102;39.012;-7.064;2023-10-13T07:33:17;98691.94;;;26.50;37.28
60240;BME280;46102;39.012;-7.064;2023-10-13T07:35:20;98701.94;;;25.79;39.21
60240;BME280;46102;39.012;-7.064;2023-10-13T07:37:25;98698.03;;;25.13;40.43
60240;BME280;46102;39.012;-7.064;2023-10-13T07:39:30;98705.16;;;24.59;41.64
60240;BME280;46102;39.012;-7.064;2023-10-13T07:41:34;98709.69;;;24.27;41.80
60240;BME280;46102;39.012;-7.064;2023-10-13T07:43:36;98714.59;;;24.93;40.61
60240;BME280;46102;39.012;-7.064;2023-10-13T07:45:38;98711.06;;;26.28;38.02
60240;BME280;46102;39.012;-7.064;2023-10-13T07:47:40;98711.53;;;27.15;36.41
60240;BME280;46102;39.012;-7.064;2023-10-13T07:49:43;98722.22;;;26.70;36.78
60240;BME280;46102;39.012;-7.064;2023-10-13T07:51:46;98723.94;;;25.88;38.23
60240;BME280;46102;39.012;-7.064;2023-10-13T07:53:49;98719.38;;;24.97;40.18
60240;BME280;46102;39.012;-7.064;2023-10-13T07:55:51;98720.88;;;24.24;42.08
60240;BME280;46102;39.012;-7.064;2023-10-13T07:58:03;98733.75;;;23.67;43.65
60240;BME280;46102;39.012;-7.064;2023-10-13T08:00:08;98730.97;;;23.49;44.30
60240;BME280;46102;39.012;-7.064;2023-10-13T08:02:14;98736.56;;;23.67;44.20
60240;BME280;46102;39.012;-7.064;2023-10-13T08:04:35;98736.53;;;24.07;43.80
60240;BME280;46102;39.012;-7.064;2023-10-13T08:06:39;98739.69;;;24.30;43.17
60240;BME280;46102;39.012;-7.064;2023-10-13T08:08:43;98742.78;;;24.65;43.15
60240;BME280;46102;39.012;-7.064;2023-10-13T08:10:44;98740.69;;;24.90;42.65
60240;BME280;46102;39.012;-7.064;2023-10-13T08:12:45;98749.00;;;25.05;42.46
60240;BME280;46102;39.012;-7.064;2023-10-13T08:14:47;98746.53;;;25.14;42.44
60240;BME280;46102;39.012;-7.064;2023-10-13T08:16:48;98760.22;;;25.05;42.11
60240;BME280;46102;39.012;-7.064;2023-10-13T08:18:55;98756.25;;;24.99;42.32
60240;BME280;46102;39.012;-7.064;2023-10-13T08:21:03;98745.91;;;24.85;42.28
60240;BME280;46102;39.012;-7.064;2023-10-13T08:23:04;98755.19;;;24.75;42.86
60240;BME280;46102;39.012;-7.064;2023-10-13T08:25:13;98752.41;;;24.64;42.79
60240;BME280;46102;39.012;-7.064;2023-10-13T08:27:46;98755.22;;;24.64;42.98
60240;BME280;46102;39.012;-7.064;2023-10-13T08:30:06;98760.00;;;24.70;42.41
60240;BME280;46102;39.012;-7.064;2023-10-13T08:32:26;98759.50;;;24.90;42.09
60240;BME280;46102;39.012;-7.064;2023-10-13T08:34:27;98768.25;;;25.03;41.23
60240;BME280;46102;39.012;-7.064;2023-10-13T08:36:30;98777.00;;;25.23;40.79
60240;BME280;46102;39.012;-7.064;2023-10-13T08:38:31;98774.47;;;25.39;40.47
60240;BME280;46102;39.012;-7.064;2023-10-13T08:40:44;98769.75;;;25.22;40.29
60240;BME280;46102;39.012;-7.064;2023-10-13T08:42:57;98775.91;;;24.95;41.19
60240;BME280;46102;39.012;-7.064;2023-10-13T08:45:07;98772.84;;;24.64;41.40
60240;BME280;46102;39.012;-7.064;2023-10-13T08:47:21;98774.50;;;24.33;41.71
60240;BME280;46102;39.012;-7.064;2023-10-13T08:49:25;98780.56;;;24.10;42.09
60240;BME280;46102;39.012;-7.064;2023-10-13T08:51:33;98791.78;;;23.92;42.85
60240;BME280;46102;39.012;-7.064;2023-10-13T08:53:51;98785.00;;;23.82;42.66
60240;BME280;46102;39.012;-7.064;2023-10-13T08:56:01;98787.00;;;23.75;42.91
60240;BME280;46102;39.012;-7.064;2023-10-13T08:58:20;98792.56;;;23.64;43.29
60240;BME280;46102;39.012;-7.064;2023-10-13T09:00:25;98783.34;;;23.53;43.50
60240;BME280;46102;39.012;-7.064;2023-10-13T09:02:44;98797.75;;;23.47;43.98
60240;BME280;46102;39.012;-7.064;2023-10-13T09:05:14;98798.94;;;23.43;43.82
60240;BME280;46102;39.012;-7.064;2023-10-13T09:07:44;98801.34;;;23.44;43.79
60240;BME280;46102;39.012;-7.064;2023-10-13T09:09:49;98800.97;;;23.53;43.43
60240;BME280;46102;39.012;-7.064;2023-10-13T09:11:54;98807.38;;;23.61;43.38
60240;BME280;46102;39.012;-7.064;2023-10-13T09:14:15;98803.00;;;23.85;43.01
60240;BME280;46102;39.012;-7.064;2023-10-13T09:16:34;98795.38;;;24.07;43.01
60240;BME280;46102;39.012;-7.064;2023-10-13T09:18:41;98791.31;;;24.47;41.97
60240;BME280;46102;39.012;-7.064;2023-10-13T09:20:48;98792.44;;;24.71;41.70
60240;BME280;46102;39.012;-7.064;2023-10-13T09:23:07;98794.44;;;24.75;41.04
60240;BME280;46102;39.012;-7.064;2023-10-13T09:25:08;98799.22;;;24.78;41.21
60240;BME280;46102;39.012;-7.064;2023-10-13T09:27:14;98798.50;;;24.56;41.31
60240;BME280;46102;39.012;-7.064;2023-10-13T09:29:16;98798.13;;;24.39;41.78
60240;BME280;46102;39.012;-7.064;2023-10-13T09:31:22;98803.38;;;24.12;42.35
60240;BME280;46102;39.012;-7.064;2023-10-13T09:33:28;98798.22;;;23.89;42.58
60240;BME280;46102;39.012;-7.064;2023-10-13T09:35:33;98807.75;;;23.63;43.18
60240;BME280;46102;39.012;-7.064;2023-10-13T09:37:37;98809.38;;;23.53;43.23
60240;BME280;46102;39.012;-7.064;2023-10-13T09:39:38;98810.16;;;23.46;43.50
60240;BME280;46102;39.012;-7.064;2023-10-13T09:41:44;98815.31;;;23.30;43.68
60240;BME280;46102;39.012;-7.064;2023-10-13T09:43:48;98817.66;;;23.14;44.58
60240;BME280;46102;39.012;-7.064;2023-10-13T09:45:59;98824.81;;;23.00;45.05
60240;BME280;46102;39.012;-7.064;2023-10-13T09:48:10;98824.44;;;23.09;45.04
60240;BME280;46102;39.012;-7.064;2023-10-13T09:50:16;98823.69;;;23.19;44.91
60240;BME280;46102;39.012;-7.064;2023-10-13T09:52:24;98820.13;;;23.40;44.58
60240;BME280;46102;39.012;-7.064;2023-10-13T09:54:36;98815.34;;;23.73;44.09
60240;BME280;46102;39.012;-7.064;2023-10-13T09:56:47;98822.19;;;24.22;43.05
60240;BME280;46102;39.012;-7.064;2023-10-13T09:58:55;98818.53;;;24.61;41.23
60240;BME280;46102;39.012;-7.064;2023-10-13T10:01:02;98820.81;;;24.95;41.22
60240;BME280;46102;39.012;-7.064;2023-10-13T10:03:10;98826.38;;;25.72;39.92
60240;BME280;46102;39.012;-7.064;2023-10-13T10:05:29;98826.41;;;26.21;39.14
60240;BME280;46102;39.012;-7.064;2023-10-13T10:07:35;98819.88;;;26.31;38.89
60240;BME280;46102;39.012;-7.064;2023-10-13T10:09:35;98822.44;;;26.60;38.52
60240;BME280;46102;39.012;-7.064;2023-10-13T10:16:10;98825.72;;;26.48;38.17
60240;BME280;46102;39.012;-7.064;2023-10-13T10:18:22;98839.56;;;26.31;38.50
60240;BME280;46102;39.012;-7.064;2023-10-13T10:20:29;98843.25;;;25.72;39.63
60240;BME280;46102;39.012;-7.064;2023-10-13T10:22:41;98850.31;;;25.28;41.15
60240;BME280;46102;39.012;-7.064;2023-10-13T10:24:59;98849.53;;;25.28;41.36
60240;BME280;46102;39.012;-7.064;2023-10-13T10:27:02;98847.91;;;25.38;41.27
60240;BME280;46102;39.012;-7.064;2023-10-13T10:29:11;98836.19;;;25.46;40.96
60240;BME280;46102;39.012;-7.064;2023-10-13T10:31:15;98839.03;;;25.43;40.86
60240;BME280;46102;39.012;-7.064;2023-10-13T10:33:17;98839.31;;;25.63;40.88
60240;BME280;46102;39.012;-7.064;2023-10-13T10:35:23;98837.69;;;25.62;40.87
60240;BME280;46102;39.012;-7.064;2023-10-13T10:37:32;98830.97;;;26.04;40.30
60240;BME280;46102;39.012;-7.064;2023-10-13T10:39:35;98829.84;;;26.40;39.93
60240;BME280;46102;39.012;-7.064;2023-10-13T10:41:50;98834.38;;;26.68;38.91
60240;BME280;46102;39.012;-7.064;2023-10-13T10:43:53;98833.44;;;27.12;37.97
60240;BME280;46102;39.012;-7.064;2023-10-13T10:45:54;98833.03;;;27.14;38.01
60240;BME280;46102;39.012;-7.064;2023-10-13T10:48:00;98827.19;;;27.32;37.69
60240;BME280;46102;39.012;-7.064;2023-10-13T10:50:25;98831.66;;;27.29;36.40
60240;BME280;46102;39.012;-7.064;2023-10-13T10:52:35;98825.72;;;27.20;36.67
60240;BME280;46102;39.012;-7.064;2023-10-13T10:54:39;98826.97;;;27.15;36.61
60240;BME280;46102;39.012;-7.064;2023-10-13T10:56:46;98827.50;;;27.07;36.93
60240;BME280;46102;39.012;-7.064;2023-10-13T10:58:55;98821.88;;;27.07;36.79
60240;BME280;46102;39.012;-7.064;2023-10-13T11:01:06;98822.69;;;27.04;37.00
60240;BME280;46102;39.012;-7.064;2023-10-13T11:03:19;98831.59;;;27.02;36.87
60240;BME280;46102;39.012;-7.064;2023-10-13T11:05:20;98834.34;;;26.71;37.11
60240;BME280;46102;39.012;-7.064;2023-10-13T11:07:23;98833.13;;;26.72;37.26
60240;BME280;46102;39.012;-7.064;2023-10-13T11:11:37;98830.75;;;26.71;37.51
60240;BME280;46102;39.012;-7.064;2023-10-13T11:13:44;98835.19;;;26.68;37.77
60240;BME280;46102;39.012;-7.064;2023-10-13T11:16:05;98825.53;;;26.69;37.92
60240;BME280;46102;39.012;-7.064;2023-10-13T11:18:08;98827.09;;;26.74;37.70